Time;durP1;ratioP1;P1;durP2;ratioP2;P2;SDS_P1;SDS_P2;PMS_P1;PMS_P2;Temp;Humidity;BMP_temperature;BMP_pressure;BME280_temperature;BME280_humidity;BME280_pressure;Samples;Min_cycle;Max_cycle;Signal;HPM_P1;HPM_P2
2024/01/13 00:00:11;;;;;;;9.32;4.47;;;;;;;0.01;83.60;100701.59;335854;28;5602;-75
2024/01/13 00:00:23;;;;;;;11.00;4.70;;;;;;;-0.01;84.00;100704.97;330995;28;17885;-75
2024/01/13 00:00:35;;;;;;;10.90;4.68;;;;;;;-0.02;84.18;100703.25;335907;28;5568;-75
2024/01/13 00:00:47;;;;;;;10.73;4.70;;;;;;;-0.05;83.96;100702.28;329191;28;10137;-75
2024/01/13 00:00:59;;;;;;;11.82;5.20;;;;;;;-0.08;84.29;100700.53;336745;28;5441;-75
2024/01/13 00:01:11;;;;;;;12.52;5.22;;;;;;;-0.08;83.82;100703.09;334781;28;12567;-75
2024/01/13 00:01:23;;;;;;;10.90;4.78;;;;;;;-0.08;84.42;100708.19;336342;28;17523;-75
2024/01/13 00:01:35;;;;;;;10.30;4.00;;;;;;;-0.08;84.49;100703.09;336796;28;4815;-75
2024/01/13 00:01:47;;;;;;;10.55;4.00;;;;;;;-0.10;84.57;100699.63;334871;28;5230;-75
2024/01/13 00:01:59;;;;;;;9.40;3.92;;;;;;;-0.09;85.11;100701.34;337390;28;5493;-75
2024/01/13 00:02:11;;;;;;;8.20;3.80;;;;;;;-0.11;84.03;100697.88;330995;28;10694;-75
2024/01/13 00:02:23;;;;;;;7.95;3.92;;;;;;;-0.11;84.13;100702.97;339013;28;5256;-75
2024/01/13 00:02:35;;;;;;;9.15;4.47;;;;;;;-0.10;84.20;100699.63;337943;28;4702;-75
2024/01/13 00:02:47;;;;;;;8.50;4.57;;;;;;;-0.06;84.33;100705.66;333250;28;19297;-75
2024/01/13 00:03:00;;;;;;;8.40;4.20;;;;;;;-0.04;84.70;100704.91;337002;28;4717;-75
2024/01/13 00:03:12;;;;;;;8.48;4.07;;;;;;;-0.03;84.22;100698.94;335088;28;18151;-75
2024/01/13 00:03:24;;;;;;;7.82;3.67;;;;;;;-0.02;84.53;100699.78;338227;28;4551;-75
2024/01/13 00:03:37;;;;;;;7.47;4.05;;;;;;;0.01;84.79;100701.59;335744;28;4624;-75
2024/01/13 00:03:49;;;;;;;7.38;4.00;;;;;;;0.01;85.38;100701.59;336275;28;4502;-75
2024/01/13 00:04:01;;;;;;;8.23;3.78;;;;;;;0.02;85.41;100703.31;335642;28;12365;-75
2024/01/13 00:04:13;;;;;;;8.23;3.60;;;;;;;0.07;85.65;100696.66;335014;28;17895;-75
2024/01/13 00:04:25;;;;;;;9.38;3.72;;;;;;;0.09;85.68;100697.56;337559;28;4705;-75
2024/01/13 00:04:38;;;;;;;8.75;3.60;;;;;;;0.09;85.54;100700.09;334301;28;18010;-75
2024/01/13 00:04:50;;;;;;;7.85;3.45;;;;;;;0.06;85.63;100700.00;336207;28;4681;-75
2024/01/13 00:05:02;;;;;;;7.35;3.58;;;;;;;-0.01;84.98;100689.63;337321;28;4581;-75
2024/01/13 00:05:14;;;;;;;7.78;3.90;;;;;;;0.02;85.91;100698.19;334515;28;18190;-75
2024/01/13 00:05:26;;;;;;;8.70;3.83;;;;;;;0.02;85.21;100700.75;337141;28;5852;-75
2024/01/13 00:05:38;;;;;;;8.68;3.53;;;;;;;0.05;84.99;100698.28;334380;28;18583;-75
2024/01/13 00:05:51;;;;;;;8.02;3.30;;;;;;;0.06;85.57;100692.34;336495;28;4561;-75
2024/01/13 00:06:03;;;;;;;8.57;3.80;;;;;;;0.06;85.75;100700.00;334975;28;18003;-75
2024/01/13 00:06:16;;;;;;;10.18;3.95;;;;;;;0.03;85.88;100693.13;336894;28;9585;-75
2024/01/13 00:06:33;;;;;;;9.85;3.95;;;;;;;0.09;86.28;100700.09;332363;28;17851;-75
2024/01/13 00:06:45;;;;;;;8.23;4.22;;;;;;;0.10;85.59;100701.81;337208;28;4596;-75
2024/01/13 00:06:57;;;;;;;8.35;4.30;;;;;;;0.08;86.48;100694.13;336025;28;4780;-75
2024/01/13 00:07:09;;;;;;;8.52;4.00;;;;;;;0.05;86.26;100693.19;332784;28;18303;-75
2024/01/13 00:07:21;;;;;;;9.10;3.90;;;;;;;0.07;86.61;100696.66;335317;28;4782;-75
2024/01/13 00:07:33;;;;;;;8.35;3.78;;;;;;;0.06;86.34;100694.91;333862;28;4602;-75
2024/01/13 00:07:45;;;;;;;7.18;3.50;;;;;;;0.05;86.55;100694.03;335241;28;4668;-75
2024/01/13 00:07:57;;;;;;;7.07;3.55;;;;;;;0.07;86.38;100696.66;335294;28;4727;-75
2024/01/13 00:08:09;;;;;;;6.90;3.47;;;;;;;0.12;86.22;100689.94;333787;28;5456;-75
2024/01/13 00:08:23;;;;;;;7.78;3.35;;;;;;;0.14;86.16;100693.41;336014;28;12035;-75
2024/01/13 00:08:47;;;;;;;6.85;3.42;;;;;;;0.14;85.76;100693.41;334136;28;17329;-75
2024/01/13 00:08:59;;;;;;;5.63;3.25;;;;;;;0.18;85.38;100695.22;334458;28;11269;-75
2024/01/13 00:09:12;;;;;;;6.70;3.15;;;;;;;0.10;86.02;100691.59;336441;28;4651;-75
2024/01/13 00:09:24;;;;;;;7.18;3.45;;;;;;;0.12;85.48;100695.06;329623;28;17762;-75
2024/01/13 00:09:36;;;;;;;7.68;3.60;;;;;;;0.08;85.23;100693.25;337471;28;4565;-75
2024/01/13 00:09:48;;;;;;;7.95;3.70;;;;;;;0.08;85.87;100694.13;334443;28;13565;-75
2024/01/13 00:10:00;;;;;;;7.05;3.63;;;;;;;0.06;85.60;100694.91;336060;28;4752;-75
2024/01/13 00:10:12;;;;;;;7.43;3.78;;;;;;;0.10;85.20;100687.38;336861;28;4997;-75
2024/01/13 00:10:24;;;;;;;7.28;3.60;;;;;;;0.12;85.08;100689.94;334881;28;17956;-75
2024/01/13 00:10:36;;;;;;;7.78;3.25;;;;;;;0.09;85.46;100695.00;336738;28;4693;-75
2024/01/13 00:10:48;;;;;;;7.50;3.30;;;;;;;0.06;85.65;100694.91;330859;28;4854;-75
2024/01/13 00:11:00;;;;;;;8.40;3.50;;;;;;;0.03;85.07;100694.84;337451;28;4869;-75
2024/01/13 00:11:12;;;;;;;9.18;3.95;;;;;;;0.05;84.96;100688.94;338490;28;4615;-74
2024/01/13 00:11:24;;;;;;;8.52;3.67;;;;;;;0.04;85.77;100692.31;334412;28;4595;-75
2024/01/13 00:11:36;;;;;;;8.20;3.50;;;;;;;0.09;85.14;100684.78;336492;28;4837;-75
2024/01/13 00:11:48;;;;;;;7.55;3.40;;;;;;;0.13;85.56;100691.69;334394;28;13412;-75
2024/01/13 00:12:02;;;;;;;7.93;3.60;;;;;;;0.15;85.38;100684.94;336607;28;5465;-75
2024/01/13 00:12:14;;;;;;;7.53;4.03;;;;;;;0.19;85.75;100689.28;337218;28;5496;-75
2024/01/13 00:12:26;;;;;;;7.53;4.15;;;;;;;0.11;85.75;100686.53;334849;28;16311;-75
2024/01/13 00:12:38;;;;;;;6.93;3.80;;;;;;;0.10;84.99;100682.25;336985;28;4851;-75
2024/01/13 00:12:50;;;;;;;5.97;3.22;;;;;;;0.04;85.22;100686.31;333802;28;14840;-75
2024/01/13 00:13:04;;;;;;;6.70;3.20;;;;;;;-0.01;86.10;100687.06;336381;28;4639;-75
2024/01/13 00:13:16;;;;;;;7.97;3.55;;;;;;;0.01;86.37;100683.69;334959;28;17897;-75
2024/01/13 00:13:28;;;;;;;9.32;3.72;;;;;;;-0.04;86.03;100684.44;337027;28;4704;-75
2024/01/13 00:13:40;;;;;;;7.85;3.80;;;;;;;-0.08;86.30;100687.75;330464;28;18179;-75
2024/01/13 00:13:52;;;;;;;8.07;3.65;;;;;;;-0.14;86.97;100685.03;335738;28;4591;-75
2024/01/13 00:14:05;;;;;;;8.35;3.63;;;;;;;-0.15;87.11;100690.09;334209;28;4720;-75
2024/01/13 00:14:17;;;;;;;9.98;4.00;;;;;;;-0.14;86.95;100681.56;336422;28;5443;-75
2024/01/13 00:14:29;;;;;;;9.50;4.18;;;;;;;-0.14;87.54;100679.03;335089;28;10891;-76
2024/01/13 00:14:41;;;;;;;9.48;4.13;;;;;;;-0.13;86.91;100683.31;336378;28;17596;-75
2024/01/13 00:14:53;;;;;;;8.30;4.20;;;;;;;-0.13;86.74;100688.44;335619;28;4600;-75
2024/01/13 00:15:06;;;;;;;8.65;3.92;;;;;;;-0.15;86.96;100683.28;334433;28;5701;-75
2024/01/13 00:15:19;;;;;;;8.43;3.80;;;;;;;-0.11;87.03;100686.78;332950;28;5306;-75
2024/01/13 00:15:31;;;;;;;8.50;3.67;;;;;;;-0.09;87.18;100686.00;335502;28;16977;-75
2024/01/13 00:15:43;;;;;;;7.72;3.72;;;;;;;-0.07;87.80;100688.59;339385;28;4657;-75
2024/01/13 00:15:55;;;;;;;9.35;4.05;;;;;;;-0.08;87.06;100672.41;337720;28;4908;-75
2024/01/13 00:16:07;;;;;;;9.45;3.90;;;;;;;-0.06;87.28;100682.66;335549;28;18035;-75
2024/01/13 00:16:19;;;;;;;10.18;3.97;;;;;;;-0.09;87.41;100675.78;339353;28;5456;-75
2024/01/13 00:16:31;;;;;;;9.18;4.15;;;;;;;-0.09;86.89;100680.88;333972;28;18602;-75
2024/01/13 00:16:43;;;;;;;8.25;4.15;;;;;;;-0.06;86.99;100680.97;335188;28;18522;-76
2024/01/13 00:16:55;;;;;;;7.55;3.92;;;;;;;-0.06;87.49;100683.53;337200;28;5651;-75
2024/01/13 00:17:07;;;;;;;9.15;4.32;;;;;;;-0.05;87.27;100677.59;334523;28;18291;-75
2024/01/13 00:17:19;;;;;;;10.45;4.55;;;;;;;-0.03;87.73;100683.59;335760;28;4711;-75
2024/01/13 00:17:31;;;;;;;9.48;4.15;;;;;;;0.01;87.46;100683.69;334071;28;7924;-75
2024/01/13 00:17:44;;;;;;;10.15;4.15;;;;;;;-0.05;87.36;100676.72;337354;28;4610;-75
2024/01/13 00:17:56;;;;;;;10.90;4.22;;;;;;;-0.05;87.53;100682.69;336523;28;18311;-75
2024/01/13 00:18:08;;;;;;;9.90;4.43;;;;;;;-0.06;87.78;100675.88;329150;28;19015;-75
2024/01/13 00:18:26;;;;;;;8.13;3.67;;;;;;;-0.07;86.92;100679.25;333672;28;17637;-75
2024/01/13 00:18:51;;;;;;;9.35;4.28;;;;;;;-0.08;87.53;100677.53;334995;28;15505;-76
2024/01/13 00:19:03;;;;;;;8.80;4.00;;;;;;;-0.06;87.84;100680.97;329247;28;18215;-75
2024/01/13 00:19:15;;;;;;;7.35;3.53;;;;;;;-0.05;88.00;100681.84;336532;28;4741;-75
2024/01/13 00:19:27;;;;;;;7.32;3.67;;;;;;;-0.03;87.97;100685.31;329837;28;18224;-75
2024/01/13 00:19:39;;;;;;;7.43;3.88;;;;;;;-0.01;87.47;100684.50;336283;28;4655;-75
2024/01/13 00:19:52;;;;;;;7.85;4.25;;;;;;;0.01;87.07;100681.16;334507;28;12036;-75
2024/01/13 00:20:04;;;;;;;7.07;4.18;;;;;;;0.02;87.39;100682.88;336726;28;5492;-75
2024/01/13 00:20:17;;;;;;;7.07;3.80;;;;;;;0.02;87.64;100678.63;334731;28;12885;-75
2024/01/13 00:20:33;;;;;;;7.32;3.47;;;;;;;-0.03;87.10;100678.50;334050;28;18354;-75
2024/01/13 00:20:45;;;;;;;8.30;3.35;;;;;;;-0.02;87.89;100681.91;337655;28;4725;-75
2024/01/13 00:20:57;;;;;;;8.65;3.65;;;;;;;-0.02;87.27;100675.13;336494;28;4591;-75
2024/01/13 00:21:09;;;;;;;8.05;3.83;;;;;;;-0.02;86.92;100677.69;329462;28;19313;-75
2024/01/13 00:21:21;;;;;;;7.32;3.58;;;;;;;0.02;87.21;100680.31;337732;28;5082;-75
2024/01/13 00:21:33;;;;;;;7.00;3.60;;;;;;;0.05;87.24;100677.84;334028;28;17830;-75
2024/01/13 00:21:45;;;;;;;7.07;3.47;;;;;;;0.05;87.42;100680.41;337509;28;5536;-75
2024/01/13 00:21:57;;;;;;;7.72;3.70;;;;;;;0.07;87.58;100681.31;334157;28;12347;-75
2024/01/13 00:22:09;;;;;;;10.70;4.13;;;;;;;0.06;87.33;100677.91;337262;28;4550;-75
2024/01/13 00:22:21;;;;;;;10.25;4.18;;;;;;;0.07;86.96;100679.59;337386;28;5471;-75
2024/01/13 00:22:33;;;;;;;10.13;4.10;;;;;;;0.05;86.63;100673.59;329913;28;4995;-75
2024/01/13 00:22:47;;;;;;;6.93;3.60;;;;;;;0.05;87.20;100673.59;336855;28;4658;-75
2024/01/13 00:22:59;;;;;;;6.70;3.60;;;;;;;0.05;86.62;100677.84;334232;28;17517;-75
2024/01/13 00:23:12;;;;;;;8.23;3.38;;;;;;;0.07;87.41;100671.09;337522;28;4731;-75
2024/01/13 00:23:23;;;;;;;9.65;3.75;;;;;;;0.11;86.91;100672.88;333609;28;18389;-75
2024/01/13 00:23:36;;;;;;;10.15;3.90;;;;;;;0.13;86.83;100666.13;336322;28;4611;-75
2024/01/13 00:23:48;;;;;;;10.10;3.90;;;;;;;0.14;86.90;100672.97;334201;28;18174;-75
2024/01/13 00:24:00;;;;;;;9.02;3.83;;;;;;;0.19;86.86;100671.41;332511;28;4619;-75
2024/01/13 00:24:12;;;;;;;8.63;4.07;;;;;;;0.18;86.70;100674.75;336736;28;5547;-75
2024/01/13 00:24:24;;;;;;;8.93;3.72;;;;;;;0.17;86.76;100665.38;331837;28;18145;-76
2024/01/13 00:24:36;;;;;;;8.63;3.65;;;;;;;0.16;86.42;100673.84;336799;28;5354;-75
2024/01/13 00:24:48;;;;;;;6.88;3.72;;;;;;;0.17;86.41;100678.16;334875;28;5684;-75
2024/01/13 00:25:00;;;;;;;5.75;3.38;;;;;;;0.17;86.70;100673.91;337796;28;5412;-75
2024/01/13 00:25:14;;;;;;;6.18;3.13;;;;;;;0.16;86.62;100676.41;337874;28;5419;-75
2024/01/13 00:25:26;;;;;;;6.95;3.35;;;;;;;0.17;86.30;100678.16;329677;28;18254;-75
2024/01/13 00:25:38;;;;;;;7.55;3.70;;;;;;;0.18;86.56;100669.66;335028;28;4609;-75
2024/01/13 00:25:50;;;;;;;9.07;3.67;;;;;;;0.21;87.05;100674.84;333164;28;16585;-75
2024/01/13 00:26:02;;;;;;;8.90;3.83;;;;;;;0.20;86.13;100673.13;335033;29;4791;-75
2024/01/13 00:26:14;;;;;;;8.68;4.07;;;;;;;0.20;86.72;100673.13;331465;28;18141;-75
2024/01/13 00:26:27;;;;;;;9.00;4.20;;;;;;;0.17;86.58;100673.06;333892;29;5772;-75
2024/01/13 00:26:39;;;;;;;9.20;3.88;;;;;;;0.12;86.32;100670.38;326423;29;13649;-75
2024/01/13 00:26:51;;;;;;;8.02;3.78;;;;;;;0.09;86.26;100665.19;334263;29;5376;-75
2024/01/13 00:27:04;;;;;;;8.63;3.55;;;;;;;0.09;86.87;100675.41;331628;29;13346;-75
2024/01/13 00:27:16;;;;;;;11.32;3.72;;;;;;;0.05;86.77;100670.19;335703;28;4698;-75
2024/01/13 00:27:28;;;;;;;12.38;3.80;;;;;;;0.05;86.50;100672.72;335470;28;5477;-75
2024/01/13 00:27:40;;;;;;;11.77;3.80;;;;;;;0.04;87.34;100671.88;333914;28;18433;-75
2024/01/13 00:27:52;;;;;;;8.55;3.72;;;;;;;0.05;87.46;100673.59;335568;28;5364;-75
2024/01/13 00:28:04;;;;;;;8.55;3.63;;;;;;;0.05;87.23;100671.03;336421;28;18320;-75
2024/01/13 00:28:16;;;;;;;8.85;3.63;;;;;;;0.04;86.88;100671.88;329608;28;17663;-76
2024/01/13 00:28:45;;;;;;;8.80;3.78;;;;;;;0.05;87.03;100672.72;333263;28;17565;-76
2024/01/13 00:28:57;;;;;;;7.43;3.60;;;;;;;0.02;86.60;100672.63;336715;28;5170;-76
2024/01/13 00:29:11;;;;;;;7.60;3.80;;;;;;;0.10;86.74;100677.16;336457;28;5276;-75
2024/01/13 00:29:23;;;;;;;7.97;3.90;;;;;;;0.08;86.69;100671.13;333126;28;18150;-75
2024/01/13 00:29:35;;;;;;;8.90;3.90;;;;;;;0.10;86.87;100676.25;332515;28;18135;-75
2024/01/13 00:29:47;;;;;;;9.85;3.90;;;;;;;0.10;86.54;100672.03;335845;28;17492;-75
2024/01/13 00:29:59;;;;;;;9.70;3.92;;;;;;;0.12;86.57;100670.38;330084;28;5545;-75
2024/01/13 00:30:11;;;;;;;8.68;4.05;;;;;;;0.15;87.33;100670.44;336069;28;18155;-75
2024/01/13 00:30:24;;;;;;;8.57;4.38;;;;;;;0.17;86.88;100667.94;337436;28;4608;-75
2024/01/13 00:30:36;;;;;;;8.35;4.07;;;;;;;0.20;86.69;100670.56;334275;28;18001;-75
2024/01/13 00:30:48;;;;;;;6.68;3.42;;;;;;;0.23;86.41;100668.09;337634;28;4604;-75
2024/01/13 00:31:00;;;;;;;6.38;3.33;;;;;;;0.27;86.42;100667.34;336588;28;16822;-75
2024/01/13 00:31:12;;;;;;;8.73;3.40;;;;;;;0.28;86.21;100671.66;330419;28;17981;-75
2024/01/13 00:31:24;;;;;;;12.25;3.72;;;;;;;0.25;86.42;100670.69;338063;28;4556;-76
2024/01/13 00:31:37;;;;;;;12.77;4.05;;;;;;;0.28;85.73;100668.19;330084;28;16316;-75
2024/01/13 00:31:49;;;;;;;11.65;4.25;;;;;;;0.29;85.70;100663.13;331438;28;4660;-75
2024/01/13 00:32:01;;;;;;;10.20;4.22;;;;;;;0.24;86.36;100669.81;333447;28;13967;-75
2024/01/13 00:32:13;;;;;;;8.57;4.18;;;;;;;0.29;85.93;100667.38;338634;28;4532;-75
2024/01/13 00:32:25;;;;;;;9.27;4.20;;;;;;;0.25;85.49;100671.56;338564;28;5020;-75
2024/01/13 00:32:37;;;;;;;9.35;4.10;;;;;;;0.20;86.15;100668.00;329564;28;16922;-75
2024/01/13 00:32:49;;;;;;;8.05;3.70;;;;;;;0.14;85.55;100667.84;336515;28;4790;-75
2024/01/13 00:33:01;;;;;;;6.72;3.45;;;;;;;0.13;85.70;100666.97;334419;28;16117;-75
2024/01/13 00:33:13;;;;;;;8.77;4.15;;;;;;;0.12;86.15;100662.72;336741;28;4935;-75
2024/01/13 00:33:25;;;;;;;9.40;4.22;;;;;;;0.12;85.81;100667.81;335584;28;12406;-75
2024/01/13 00:33:39;;;;;;;7.90;3.58;;;;;;;0.08;85.71;100662.56;335575;28;16610;-75
2024/01/13 00:33:51;;;;;;;8.30;3.65;;;;;;;0.10;86.38;100663.47;335502;28;18102;-75
2024/01/13 00:34:03;;;;;;;8.10;3.97;;;;;;;0.08;86.04;100667.69;334739;28;18213;-75
2024/01/13 00:34:15;;;;;;;7.72;3.97;;;;;;;0.11;85.60;100657.56;331787;28;4808;-75
2024/01/13 00:34:28;;;;;;;7.20;3.65;;;;;;;0.11;86.21;100665.22;333029;28;18125;-75
2024/01/13 00:34:40;;;;;;;8.10;4.25;;;;;;;0.07;85.55;100666.81;337786;28;4866;-75
2024/01/13 00:34:52;;;;;;;8.63;4.22;;;;;;;0.05;85.76;100658.25;334679;28;17926;-75
2024/01/13 00:35:04;;;;;;;9.45;4.05;;;;;;;0.07;86.14;100658.31;335857;28;4714;-75
2024/01/13 00:35:16;;;;;;;9.55;3.80;;;;;;;0.08;86.29;100667.69;334264;28;5169;-75
2024/01/13 00:35:28;;;;;;;9.25;3.85;;;;;;;0.08;86.00;100667.69;334600;28;18443;-75
2024/01/13 00:35:40;;;;;;;8.73;3.92;;;;;;;0.07;86.43;100660.84;336194;28;6162;-75
2024/01/13 00:35:52;;;;;;;8.85;3.92;;;;;;;0.13;86.21;100658.47;328376;28;5075;-75
2024/01/13 00:36:05;;;;;;;9.02;3.70;;;;;;;0.14;86.03;100667.84;335921;28;4700;-75
2024/01/13 00:36:17;;;;;;;10.63;3.88;;;;;;;0.16;85.60;100655.97;332273;28;18951;-75
2024/01/13 00:36:29;;;;;;;10.05;3.95;;;;;;;0.11;85.37;100662.66;334947;28;4713;-75
2024/01/13 00:36:42;;;;;;;10.23;4.05;;;;;;;0.10;85.61;100661.81;330978;28;13732;-75
2024/01/13 00:36:54;;;;;;;9.63;4.30;;;;;;;0.06;85.71;100666.78;333793;28;5461;-75
2024/01/13 00:37:06;;;;;;;9.10;4.20;;;;;;;-0.02;86.58;100658.91;329736;28;4671;-75
2024/01/13 00:37:18;;;;;;;8.05;3.95;;;;;;;-0.11;86.53;100664.66;332170;28;18272;-75
2024/01/13 00:37:30;;;;;;;7.85;3.95;;;;;;;-0.08;86.55;100667.31;334950;28;4686;-75
2024/01/13 00:37:44;;;;;;;8.00;4.03;;;;;;;-0.15;86.99;100664.53;334100;28;4779;-75
2024/01/13 00:37:56;;;;;;;10.20;4.35;;;;;;;-0.23;87.47;100664.31;332243;28;18077;-75
2024/01/13 00:38:08;;;;;;;9.63;4.18;;;;;;;-0.22;86.90;100663.50;332978;28;18142;-75
2024/01/13 00:38:22;;;;;;;8.13;3.85;;;;;;;-0.26;86.95;100664.25;335774;28;5119;-75
2024/01/13 00:38:46;;;;;;;8.10;3.55;;;;;;;-0.24;87.81;100665.16;332445;28;17522;-75
2024/01/13 00:38:58;;;;;;;9.13;3.92;;;;;;;-0.22;87.43;100668.63;333950;28;17977;-75
2024/01/13 00:39:10;;;;;;;9.55;4.10;;;;;;;-0.27;87.99;100665.91;336733;28;4684;-75
2024/01/13 00:39:22;;;;;;;9.52;4.13;;;;;;;-0.25;87.49;100668.53;334484;28;4707;-75
2024/01/13 00:39:35;;;;;;;9.25;4.20;;;;;;;-0.28;87.99;100665.88;336653;28;4694;-75
2024/01/13 00:39:47;;;;;;;9.13;4.30;;;;;;;-0.28;88.32;100668.41;337895;28;5229;-75
2024/01/13 00:39:59;;;;;;;8.05;3.67;;;;;;;-0.28;87.69;100673.53;332549;28;16766;-76
2024/01/13 00:40:14;;;;;;;8.27;3.72;;;;;;;-0.25;88.05;100671.06;332880;28;17566;-75
2024/01/13 00:40:26;;;;;;;8.43;3.80;;;;;;;-0.21;88.46;100667.78;334413;28;18036;-76
2024/01/13 00:40:38;;;;;;;8.95;3.90;;;;;;;-0.17;87.97;100661.94;336244;28;4577;-75
2024/01/13 00:40:50;;;;;;;7.28;3.58;;;;;;;-0.15;87.86;100662.84;334968;28;14764;-75
2024/01/13 00:41:03;;;;;;;6.30;3.30;;;;;;;-0.12;88.17;100670.59;337540;28;4725;-75
2024/01/13 00:41:16;;;;;;;6.70;3.60;;;;;;;-0.21;87.23;100662.66;334491;28;18839;-75
2024/01/13 00:41:28;;;;;;;7.72;3.72;;;;;;;-0.21;87.11;100660.13;332645;28;4735;-75
2024/01/13 00:41:40;;;;;;;8.43;4.03;;;;;;;-0.21;87.73;100667.78;334286;28;19310;-75
2024/01/13 00:41:52;;;;;;;8.85;3.90;;;;;;;-0.21;88.15;100662.66;336550;28;4636;-75
2024/01/13 00:42:04;;;;;;;9.82;3.83;;;;;;;-0.20;87.96;100656.75;334782;28;5925;-75
2024/01/13 00:42:16;;;;;;;9.38;3.53;;;;;;;-0.19;87.87;100663.56;337711;28;5913;-75
2024/01/13 00:42:28;;;;;;;7.78;3.70;;;;;;;-0.14;87.72;100667.13;335180;28;10331;-75
2024/01/13 00:42:41;;;;;;;7.38;3.63;;;;;;;-0.13;87.97;100663.75;338097;28;4722;-75
2024/01/13 00:42:53;;;;;;;8.02;3.83;;;;;;;-0.11;87.53;100667.19;337258;28;4831;-75
2024/01/13 00:43:05;;;;;;;8.30;3.67;;;;;;;-0.07;87.67;100669.00;333952;28;18337;-75
2024/01/13 00:43:17;;;;;;;7.15;3.30;;;;;;;-0.07;87.73;100661.34;336770;28;5239;-75
2024/01/13 00:43:29;;;;;;;6.05;3.15;;;;;;;-0.04;87.13;100664.00;336212;28;5307;-75
2024/01/13 00:43:41;;;;;;;7.80;3.83;;;;;;;-0.04;87.47;100661.44;330628;28;18193;-75
2024/01/13 00:43:53;;;;;;;8.43;3.97;;;;;;;-0.03;87.80;100665.72;336132;28;4672;-75
2024/01/13 00:44:05;;;;;;;8.82;3.80;;;;;;;-0.02;87.36;100659.78;334192;28;18175;-75
2024/01/13 00:44:17;;;;;;;9.70;3.78;;;;;;;0.01;87.05;100661.56;336997;28;5291;-75
2024/01/13 00:44:29;;;;;;;8.98;3.67;;;;;;;-0.02;87.04;100662.34;335177;28;4912;-75
2024/01/13 00:44:41;;;;;;;8.27;3.63;;;;;;;-0.02;87.64;100662.34;336582;28;4526;-75
2024/01/13 00:44:53;;;;;;;6.30;3.20;;;;;;;-0.01;86.98;100663.19;337485;28;4782;-76
2024/01/13 00:45:06;;;;;;;7.55;3.22;;;;;;;0.03;87.13;100654.78;333345;28;18089;-75
2024/01/13 00:45:18;;;;;;;7.28;3.53;;;;;;;0.10;87.65;100656.69;337328;28;4734;-75
2024/01/13 00:45:30;;;;;;;7.68;3.40;;;;;;;0.14;86.77;100653.38;332805;28;18949;-75
2024/01/13 00:45:42;;;;;;;6.88;3.22;;;;;;;0.15;86.41;100654.25;336873;28;5097;-75
2024/01/13 00:45:54;;;;;;;7.93;3.58;;;;;;;0.18;86.95;100659.44;333485;28;4854;-75
2024/01/13 00:46:07;;;;;;;8.82;3.58;;;;;;;0.12;85.73;100655.03;335812;28;12405;-75
2024/01/13 00:46:19;;;;;;;8.48;3.45;;;;;;;0.10;85.95;100656.69;337231;28;5290;-75
2024/01/13 00:46:31;;;;;;;6.95;3.50;;;;;;;0.06;86.22;100659.09;334485;28;16261;-75
2024/01/13 00:46:43;;;;;;;8.27;3.60;;;;;;;0.03;86.23;100653.94;337105;28;4634;-75
2024/01/13 00:46:55;;;;;;;7.63;3.42;;;;;;;-0.02;85.92;100662.34;337244;28;4620;-75
2024/01/13 00:47:07;;;;;;;7.80;3.47;;;;;;;-0.03;85.52;100660.59;334855;28;17814;-75
2024/01/13 00:47:19;;;;;;;7.25;3.20;;;;;;;-0.09;86.24;100660.44;332816;28;5848;-76
2024/01/13 00:47:31;;;;;;;6.97;3.40;;;;;;;-0.08;85.68;100659.63;334029;28;13345;-75
2024/01/13 00:47:43;;;;;;;7.45;3.70;;;;;;;-0.07;85.59;100663.91;337124;28;5941;-75
2024/01/13 00:47:55;;;;;;;7.68;3.65;;;;;;;-0.07;86.21;100663.03;334924;28;8287;-75
2024/01/13 00:48:07;;;;;;;7.55;3.63;;;;;;;-0.07;85.82;100660.50;337540;28;4693;-75
2024/01/13 00:48:19;;;;;;;7.50;3.53;;;;;;;-0.05;86.35;100657.13;337404;28;4585;-75
2024/01/13 00:48:41;;;;;;;7.07;3.72;;;;;;;-0.03;86.53;100658.03;333061;28;17686;-75
2024/01/13 00:48:54;;;;;;;8.68;3.90;;;;;;;-0.04;86.29;100658.88;336761;28;5479;-75
2024/01/13 00:49:06;;;;;;;8.63;4.20;;;;;;;-0.07;86.95;100652.81;333878;28;18754;-75
2024/01/13 00:49:18;;;;;;;8.07;4.25;;;;;;;-0.05;86.25;100661.41;336005;28;4612;-75
2024/01/13 00:49:31;;;;;;;7.70;4.20;;;;;;;-0.04;86.75;100661.44;333954;28;18479;-75
2024/01/13 00:49:43;;;;;;;9.43;4.32;;;;;;;-0.03;86.80;100669.97;337265;28;4679;-75
2024/01/13 00:49:55;;;;;;;10.75;4.38;;;;;;;-0.08;86.76;100662.19;336444;28;4597;-75
2024/01/13 00:50:07;;;;;;;9.93;3.83;;;;;;;-0.13;86.89;100662.88;329333;28;4553;-75
2024/01/13 00:50:20;;;;;;;7.30;3.70;;;;;;;-0.09;87.14;100660.44;337204;28;4701;-76
2024/01/13 00:50:33;;;;;;;6.30;3.33;;;;;;;-0.12;87.11;100665.47;334293;28;16628;-75
2024/01/13 00:50:45;;;;;;;7.00;3.60;;;;;;;-0.14;87.34;100659.47;337111;28;4767;-75
2024/01/13 00:50:57;;;;;;;8.18;3.85;;;;;;;-0.17;86.83;100661.94;333726;28;17697;-75
2024/01/13 00:51:11;;;;;;;7.18;3.60;;;;;;;-0.19;87.12;100662.72;336210;28;5093;-75
2024/01/13 00:51:25;;;;;;;8.55;3.80;;;;;;;-0.15;86.80;100657.72;332866;28;18154;-75
2024/01/13 00:51:37;;;;;;;8.18;3.55;;;;;;;-0.14;87.55;100656.91;334399;28;5277;-75
2024/01/13 00:51:49;;;;;;;7.38;3.45;;;;;;;-0.11;87.22;100656.97;328535;28;18307;-75
2024/01/13 00:52:01;;;;;;;7.00;3.40;;;;;;;-0.15;87.31;100662.84;333883;28;4661;-75
2024/01/13 00:52:13;;;;;;;8.43;3.63;;;;;;;-0.12;86.86;100660.38;330694;28;16490;-75
2024/01/13 00:52:26;;;;;;;9.85;3.70;;;;;;;-0.15;86.82;100665.38;333559;28;4635;-75
2024/01/13 00:52:38;;;;;;;10.85;4.22;;;;;;;-0.13;87.42;100658.63;331207;28;17830;-75
2024/01/13 00:52:50;;;;;;;10.80;4.47;;;;;;;-0.13;87.66;100661.19;332486;28;4722;-75
2024/01/13 00:53:03;;;;;;;9.48;4.28;;;;;;;-0.08;87.53;100659.63;330863;29;6240;-75
2024/01/13 00:53:15;;;;;;;9.63;4.20;;;;;;;-0.09;87.63;100660.44;330795;28;18148;-75
2024/01/13 00:53:27;;;;;;;9.98;4.03;;;;;;;-0.04;86.77;100658.88;334099;28;4722;-75
2024/01/13 00:53:39;;;;;;;10.10;4.22;;;;;;;-0.03;86.72;100664.84;331835;28;17850;-75
2024/01/13 00:53:51;;;;;;;10.63;4.50;;;;;;;-0.05;87.25;100659.69;336068;28;5115;-75
2024/01/13 00:54:06;;;;;;;8.80;4.38;;;;;;;-0.03;87.18;100659.75;332055;28;17868;-75
2024/01/13 00:54:23;;;;;;;7.30;3.95;;;;;;;-0.03;87.08;100657.19;334890;28;17339;-75
2024/01/13 00:54:35;;;;;;;7.30;3.78;;;;;;;-0.08;87.26;100657.06;334391;28;17795;-75
2024/01/13 00:54:47;;;;;;;7.68;3.65;;;;;;;-0.15;87.06;100660.28;332831;28;5339;-76
2024/01/13 00:54:59;;;;;;;8.07;3.78;;;;;;;-0.18;87.35;100660.22;333260;28;4769;-75
2024/01/13 00:55:12;;;;;;;7.78;3.67;;;;;;;-0.18;87.10;100660.22;336656;28;7209;-75
2024/01/13 00:55:24;;;;;;;7.65;3.75;;;;;;;-0.17;87.85;100654.25;334253;28;7160;-75
2024/01/13 00:55:36;;;;;;;7.53;3.58;;;;;;;-0.18;87.27;100654.22;337592;28;5252;-75
2024/01/13 00:55:49;;;;;;;7.30;3.55;;;;;;;-0.18;88.00;100655.09;335273;28;13313;-75
2024/01/13 00:56:01;;;;;;;7.63;3.30;;;;;;;-0.15;87.40;100655.16;331999;28;5257;-75
2024/01/13 00:56:13;;;;;;;8.43;3.47;;;;;;;-0.11;87.53;100658.69;336700;28;4731;-75
2024/01/13 00:56:25;;;;;;;8.27;3.58;;;;;;;-0.13;87.68;100661.19;334168;28;18599;-75
2024/01/13 00:56:37;;;;;;;8.50;4.07;;;;;;;-0.11;87.74;100656.97;338419;28;5622;-75
2024/01/13 00:56:49;;;;;;;8.38;4.25;;;;;;;-0.16;88.29;100652.56;335978;28;17954;-75
2024/01/13 00:57:02;;;;;;;8.13;4.10;;;;;;;-0.14;87.38;100651.81;337492;28;4751;-75
2024/01/13 00:57:14;;;;;;;8.98;4.40;;;;;;;-0.09;88.06;100654.47;334989;28;15433;-75
2024/01/13 00:57:26;;;;;;;10.38;4.40;;;;;;;-0.11;87.70;100654.41;337031;28;4575;-75
2024/01/13 00:57:38;;;;;;;10.00;3.83;;;;;;;-0.08;87.05;100658.75;338766;28;4712;-75
2024/01/13 00:57:50;;;;;;;9.05;3.55;;;;;;;-0.15;87.44;100647.50;333427;28;18094;-75
2024/01/13 00:58:02;;;;;;;7.25;3.33;;;;;;;-0.17;87.87;100655.97;335032;28;4565;-75
2024/01/13 00:58:16;;;;;;;7.55;4.05;;;;;;;-0.14;87.25;100649.25;334180;28;17908;-75
2024/01/13 00:58:47;;;;;;;10.45;4.20;;;;;;;-0.19;87.95;100653.34;344718;23;19407;-77
2024/01/13 00:58:59;;;;;;;9.90;4.47;;;;;;;-0.17;87.63;100651.69;332954;28;14860;-77
2024/01/13 00:59:12;;;;;;;10.35;4.32;;;;;;;-0.12;87.66;100655.25;343156;28;5720;-77
2024/01/13 00:59:24;;;;;;;10.77;4.15;;;;;;;-0.08;87.33;100649.41;341143;28;5264;-77
2024/01/13 00:59:40;;;;;;;9.18;3.90;;;;;;;-0.10;87.54;100648.50;336939;28;18225;-77
2024/01/13 00:59:52;;;;;;;10.48;3.72;;;;;;;-0.08;87.12;100651.97;337447;28;18154;-77
2024/01/13 01:00:05;;;;;;;11.43;3.80;;;;;;;-0.07;87.23;100647.72;338950;28;4972;-77